Time;durP1;ratioP1;P1;durP2;ratioP2;P2;SDS_P1;SDS_P2;PMS_P1;PMS_P2;Temp;Humidity;BMP_temperature;BMP_pressure;BME280_temperature;BME280_humidity;BME280_pressure;Samples;Min_cycle;Max_cycle;Signal;HPM_P1;HPM_P2
2022/03/02 00:02:16;;;;;;;9.88;7.28;;;12.40;85.00;;;;;;5133997;27;20395;-77
2022/03/02 00:04:43;;;;;;;9.80;6.38;;;12.40;84.50;;;;;;5131342;27;20016;-77
2022/03/02 00:07:08;;;;;;;9.35;6.72;;;12.40;84.50;;;;;;5114467;27;20448;-76
2022/03/02 00:09:34;;;;;;;7.90;6.10;;;12.40;84.60;;;;;;5132809;27;20019;-76
2022/03/02 00:11:59;;;;;;;8.93;6.18;;;12.30;84.40;;;;;;5132807;27;20054;-76
2022/03/02 00:14:25;;;;;;;7.80;5.82;;;12.30;84.50;;;;;;5132903;27;20471;-76
2022/03/02 00:16:51;;;;;;;9.07;6.05;;;12.30;84.50;;;;;;5129708;27;20557;-76
2022/03/02 00:19:17;;;;;;;8.25;5.45;;;12.30;84.70;;;;;;5131436;27;20391;-76
2022/03/02 00:21:43;;;;;;;7.40;5.65;;;12.30;84.20;;;;;;5133889;27;20034;-76
2022/03/02 00:24:08;;;;;;;8.95;5.90;;;12.30;84.20;;;;;;5126855;27;20022;-76
2022/03/02 00:26:34;;;;;;;6.95;5.20;;;12.30;84.30;;;;;;5139670;27;20487;-76
2022/03/02 00:29:00;;;;;;;7.22;4.95;;;12.20;84.00;;;;;;5122136;27;20060;-78
2022/03/02 00:31:26;;;;;;;6.72;5.13;;;12.20;83.90;;;;;;5140639;27;20027;-78
2022/03/02 00:33:52;;;;;;;8.65;6.10;;;12.30;84.40;;;;;;5138337;27;20023;-76
2022/03/02 00:36:18;;;;;;;6.22;4.88;;;12.20;84.20;;;;;;5130150;27;20372;-76
2022/03/02 00:38:44;;;;;;;8.10;5.78;;;12.20;83.70;;;;;;5140463;27;20056;-76
2022/03/02 00:41:10;;;;;;;7.28;5.20;;;12.20;83.70;;;;;;5152781;27;20019;-76
2022/03/02 00:43:35;;;;;;;7.30;4.88;;;12.20;83.80;;;;;;5138967;27;20530;-76
2022/03/02 00:46:01;;;;;;;7.38;5.47;;;12.20;83.50;;;;;;5138285;27;20502;-76
2022/03/02 00:48:27;;;;;;;8.73;5.60;;;12.20;83.50;;;;;;5130227;27;20025;-76
2022/03/02 00:50:53;;;;;;;7.05;5.38;;;12.10;83.30;;;;;;5139112;27;20048;-76
2022/03/02 00:53:19;;;;;;;6.90;5.13;;;12.10;83.40;;;;;;5143827;27;20475;-76
2022/03/02 00:55:45;;;;;;;7.15;4.82;;;12.10;83.50;;;;;;5137092;27;20026;-77
2022/03/02 00:58:10;;;;;;;8.38;5.00;;;12.10;83.40;;;;;;5138937;27;20031;-76
2022/03/02 01:00:37;;;;;;;7.05;4.93;;;12.10;83.50;;;;;;5121907;27;20459;-76
2022/03/02 01:03:03;;;;;;;6.47;4.95;;;12.10;83.40;;;;;;5131979;27;20015;-77
2022/03/02 01:05:28;;;;;;;6.57;5.10;;;12.10;83.60;;;;;;5134005;27;20525;-77
2022/03/02 01:07:54;;;;;;;6.93;4.50;;;12.10;83.40;;;;;;5130541;27;20027;-76
2022/03/02 01:10:20;;;;;;;8.60;5.40;;;12.10;83.50;;;;;;5131625;27;20023;-77
2022/03/02 01:12:46;;;;;;;7.18;4.90;;;12.10;83.20;;;;;;5113331;27;20023;-77
2022/03/02 01:15:13;;;;;;;6.75;4.72;;;12.00;83.40;;;;;;5131501;27;20054;-77
2022/03/02 01:17:39;;;;;;;7.30;5.22;;;12.00;83.30;;;;;;5133838;27;20390;-77
2022/03/02 01:20:07;;;;;;;7.13;5.07;;;12.00;83.50;;;;;;5131766;27;20566;-77
2022/03/02 01:22:34;;;;;;;7.05;4.90;;;12.00;83.00;;;;;;5130231;27;20026;-76
2022/03/02 01:25:00;;;;;;;8.23;4.88;;;12.00;83.00;;;;;;5131516;27;20012;-77
2022/03/02 01:27:25;;;;;;;7.78;4.88;;;12.00;83.30;;;;;;5131711;27;20027;-77
2022/03/02 01:29:51;;;;;;;4.93;4.22;;;12.00;83.30;;;;;;5133048;27;20039;-76
2022/03/02 01:32:17;;;;;;;7.57;5.20;;;12.00;83.50;;;;;;5132366;27;20102;-77
2022/03/02 01:34:43;;;;;;;5.28;4.40;;;12.00;83.30;;;;;;5131542;27;20030;-76
2022/03/02 01:37:09;;;;;;;6.60;4.68;;;12.00;83.50;;;;;;5131458;27;20039;-76
2022/03/02 01:39:34;;;;;;;6.45;4.93;;;12.00;83.60;;;;;;5112710;27;20491;-76
2022/03/02 01:42:00;;;;;;;6.70;4.60;;;11.90;83.70;;;;;;5131603;27;20033;-77
2022/03/02 01:44:26;;;;;;;7.95;5.07;;;11.90;83.90;;;;;;5112862;27;20495;-76
2022/03/02 01:46:52;;;;;;;7.93;5.00;;;11.90;83.80;;;;;;5129706;27;20450;-77
2022/03/02 01:49:17;;;;;;;6.75;4.88;;;11.90;83.70;;;;;;5131369;27;20019;-76
2022/03/02 01:51:43;;;;;;;6.45;5.00;;;11.90;83.80;;;;;;5113026;27;20023;-76
2022/03/02 01:54:09;;;;;;;6.68;4.38;;;11.80;83.70;;;;;;5131168;27;20152;-77
2022/03/02 01:56:35;;;;;;;6.82;4.50;;;11.80;84.10;;;;;;5115022;27;20483;-77
2022/03/02 01:59:02;;;;;;;6.70;4.97;;;11.80;83.80;;;;;;5112527;27;20027;-77
2022/03/02 02:01:28;;;;;;;7.57;4.80;;;11.80;84.00;;;;;;5129579;27;20371;-76
2022/03/02 02:03:54;;;;;;;6.32;4.50;;;11.80;84.00;;;;;;5131023;27;20034;-78
2022/03/02 02:06:19;;;;;;;7.45;4.85;;;11.80;83.50;;;;;;5130454;27;20074;-77
2022/03/02 02:08:45;;;;;;;6.22;4.55;;;11.80;83.30;;;;;;5132746;27;20038;-76
2022/03/02 02:11:12;;;;;;;6.35;4.53;;;11.80;83.40;;;;;;5131067;27;20572;-77
2022/03/02 02:13:38;;;;;;;9.15;5.00;;;11.80;84.30;;;;;;5130997;27;20081;-78
2022/03/02 02:16:05;;;;;;;9.35;4.75;;;11.80;83.30;;;;;;5130634;28;20015;-77
2022/03/02 02:18:32;;;;;;;6.30;4.50;;;11.70;83.60;;;;;;5112778;28;20027;-77
2022/03/02 02:21:07;;;;;;;7.43;4.32;;;11.80;83.60;;;;;;5131589;27;20007;-77
2022/03/02 02:23:34;;;;;;;5.75;4.40;;;11.70;83.40;;;;;;5131494;27;20020;-77
2022/03/02 02:25:59;;;;;;;5.43;4.28;;;11.80;83.50;;;;;;5113124;27;20150;-77
2022/03/02 02:28:27;;;;;;;6.55;4.72;;;11.70;82.90;;;;;;5130886;27;20781;-77
2022/03/02 02:30:54;;;;;;;6.65;4.53;;;11.70;83.10;;;;;;5130805;27;20027;-77
2022/03/02 02:33:21;;;;;;;7.10;4.25;;;11.70;83.00;;;;;;5131006;28;20095;-77
2022/03/02 02:35:47;;;;;;;7.60;4.47;;;11.80;82.90;;;;;;5132578;28;20375;-77
2022/03/02 02:38:13;;;;;;;6.22;4.57;;;11.80;82.70;;;;;;5131054;27;20035;-77
2022/03/02 02:40:40;;;;;;;5.88;4.75;;;11.70;82.40;;;;;;5129363;27;20491;-76
2022/03/02 02:43:07;;;;;;;5.55;4.28;;;11.70;82.40;;;;;;5130626;27;20027;-76
2022/03/02 02:45:33;;;;;;;6.05;4.75;;;11.70;82.30;;;;;;5140138;27;20051;-76
2022/03/02 02:47:59;;;;;;;6.00;4.40;;;11.70;82.00;;;;;;5131098;27;20023;-79
2022/03/02 02:50:27;;;;;;;6.35;4.47;;;11.70;82.20;;;;;;5114282;28;20510;-77
2022/03/02 02:52:54;;;;;;;7.78;4.80;;;11.70;83.20;;;;;;5130409;27;20015;-77
2022/03/02 02:55:22;;;;;;;6.78;4.75;;;11.70;82.30;;;;;;5130788;27;20031;-77
2022/03/02 02:57:49;;;;;;;6.65;4.95;;;11.70;82.10;;;;;;5130673;27;20049;-77
2022/03/02 03:00:18;;;;;;;5.55;4.10;;;11.70;82.00;;;;;;5114550;27;20030;-76
2022/03/02 03:02:47;;;;;;;6.13;4.50;;;11.70;81.90;;;;;;5128788;27;20131;-77
2022/03/02 03:05:16;;;;;;;7.32;4.57;;;11.70;82.00;;;;;;5130339;27;20105;-77
2022/03/02 03:07:42;;;;;;;6.93;4.13;;;11.70;81.80;;;;;;5129753;27;20537;-77
2022/03/02 03:10:10;;;;;;;7.53;4.68;;;11.60;81.40;;;;;;5111933;28;20035;-76
2022/03/02 03:12:36;;;;;;;8.13;4.50;;;11.70;81.40;;;;;;5130154;27;20015;-77
2022/03/02 03:15:09;;;;;;;6.05;4.70;;;11.60;81.40;;;;;;5129955;27;20035;-77
2022/03/02 03:17:35;;;;;;;6.35;4.18;;;11.60;81.30;;;;;;5135148;27;20487;-77
2022/03/02 03:20:01;;;;;;;7.20;4.60;;;11.60;81.70;;;;;;5131847;27;20026;-78
2022/03/02 03:22:27;;;;;;;6.10;4.65;;;11.60;81.40;;;;;;5115843;27;20027;-78
2022/03/02 03:24:53;;;;;;;6.95;4.25;;;11.60;81.10;;;;;;5115710;27;20039;-78
2022/03/02 03:27:18;;;;;;;8.32;4.68;;;11.60;81.20;;;;;;5134272;27;20016;-77
2022/03/02 03:29:44;;;;;;;7.70;4.82;;;11.60;81.20;;;;;;5136401;27;20149;-78
2022/03/02 03:32:10;;;;;;;8.50;4.80;;;11.60;81.00;;;;;;5134159;27;20437;-78
2022/03/02 03:34:35;;;;;;;6.95;4.60;;;11.60;81.10;;;;;;5133620;27;20024;-78
2022/03/02 03:37:01;;;;;;;7.00;4.72;;;11.60;81.10;;;;;;5133779;27;20028;-78
2022/03/02 03:39:27;;;;;;;8.45;4.97;;;11.50;80.90;;;;;;5134004;27;20535;-78
2022/03/02 03:41:54;;;;;;;5.85;4.65;;;11.50;80.60;;;;;;5134929;27;20119;-77
2022/03/02 03:44:20;;;;;;;7.43;4.97;;;11.50;80.20;;;;;;5134905;27;20042;-78
2022/03/02 03:46:46;;;;;;;8.65;4.88;;;11.50;80.40;;;;;;5133708;27;20395;-76
2022/03/02 03:49:11;;;;;;;7.95;5.50;;;11.40;80.10;;;;;;5114786;27;20352;-76
2022/03/02 03:51:37;;;;;;;6.68;5.05;;;11.40;80.10;;;;;;5133808;27;20059;-78
2022/03/02 03:54:02;;;;;;;7.13;5.43;;;11.50;80.30;;;;;;5133713;27;20034;-77
2022/03/02 03:56:30;;;;;;;6.18;4.60;;;11.50;80.10;;;;;;5135679;27;20119;-77
2022/03/02 03:58:56;;;;;;;6.43;5.03;;;11.50;79.90;;;;;;5132144;27;20023;-77
2022/03/02 04:01:21;;;;;;;8.05;4.68;;;11.50;79.70;;;;;;5133453;27;20030;-77
2022/03/02 04:03:47;;;;;;;8.07;5.15;;;11.50;79.70;;;;;;5133141;27;20030;-77
2022/03/02 04:06:13;;;;;;;10.48;5.32;;;11.40;79.20;;;;;;5115076;27;20036;-77
2022/03/02 04:08:39;;;;;;;8.70;5.43;;;11.40;79.30;;;;;;5135463;27;20023;-78
2022/03/02 04:11:04;;;;;;;7.55;5.18;;;11.40;79.10;;;;;;5114723;27;20034;-77
2022/03/02 04:13:30;;;;;;;7.45;4.93;;;11.40;79.20;;;;;;5133181;27;20106;-77
2022/03/02 04:15:56;;;;;;;8.13;5.28;;;11.40;79.20;;;;;;5133093;27;20019;-77
2022/03/02 04:18:21;;;;;;;6.95;5.05;;;11.40;79.00;;;;;;5114568;27;20396;-77
2022/03/02 04:20:47;;;;;;;7.95;5.22;;;11.40;78.70;;;;;;5135049;27;20055;-77
2022/03/02 04:23:13;;;;;;;8.95;5.25;;;11.40;78.70;;;;;;5131779;27;20106;-77
2022/03/02 04:25:38;;;;;;;8.23;5.85;;;11.40;78.70;;;;;;5133144;27;20027;-77
2022/03/02 04:28:04;;;;;;;7.22;5.30;;;11.40;78.50;;;;;;5132229;27;20023;-77
2022/03/02 04:30:30;;;;;;;8.77;5.32;;;11.40;78.50;;;;;;5132976;27;20015;-77
2022/03/02 04:32:57;;;;;;;7.10;4.63;;;11.40;78.10;;;;;;5133500;27;20500;-78
2022/03/02 04:35:23;;;;;;;7.38;5.55;;;11.40;78.40;;;;;;5134438;27;20060;-78
2022/03/02 04:37:50;;;;;;;7.15;4.97;;;11.40;78.20;;;;;;5112928;27;20035;-78
2022/03/02 04:40:16;;;;;;;8.43;5.38;;;11.30;77.70;;;;;;5114163;27;20019;-78
2022/03/02 04:42:42;;;;;;;7.97;5.70;;;11.30;77.90;;;;;;5132835;27;20060;-78
2022/03/02 04:45:08;;;;;;;9.30;5.13;;;11.30;77.90;;;;;;5132561;27;20044;-77
2022/03/02 04:47:34;;;;;;;10.45;5.80;;;11.30;78.10;;;;;;5134288;27;20024;-78
2022/03/02 04:49:59;;;;;;;7.15;5.38;;;11.30;77.80;;;;;;5132556;27;20024;-78
2022/03/02 04:52:25;;;;;;;9.15;5.65;;;11.30;77.60;;;;;;5132353;27;20015;-78
2022/03/02 04:55:05;;;;;;;9.20;5.68;;;11.20;77.60;;;;;;5132496;27;20134;-77
2022/03/02 04:57:38;;;;;;;9.68;5.18;;;11.20;77.50;;;;;;5132488;27;20444;-77
2022/03/02 05:00:09;;;;;;;10.38;5.68;;;11.20;77.70;;;;;;5132624;27;20024;-77
2022/03/02 05:02:35;;;;;;;7.63;5.57;;;11.20;77.70;;;;;;5133134;27;20023;-77
2022/03/02 05:05:01;;;;;;;8.88;5.85;;;11.20;77.80;;;;;;5132251;27;20025;-78
2022/03/02 05:07:26;;;;;;;9.63;6.35;;;11.20;77.80;;;;;;5113845;27;20027;-78
2022/03/02 05:09:52;;;;;;;8.65;5.78;;;11.20;77.80;;;;;;5132123;27;20027;-77
2022/03/02 05:12:18;;;;;;;8.27;5.80;;;11.20;77.80;;;;;;5113737;27;20028;-78
2022/03/02 05:14:43;;;;;;;8.50;5.93;;;11.10;77.60;;;;;;5134445;27;20015;-77
2022/03/02 05:17:09;;;;;;;9.52;6.18;;;11.20;77.70;;;;;;5130076;27;20497;-78
2022/03/02 05:19:35;;;;;;;9.40;6.00;;;11.10;77.80;;;;;;5132034;27;20019;-77
2022/03/02 05:22:01;;;;;;;9.23;5.75;;;11.10;77.80;;;;;;5113427;27;20027;-78
2022/03/02 05:24:26;;;;;;;8.63;5.55;;;11.00;77.60;;;;;;5131970;27;20023;-78
2022/03/02 05:26:52;;;;;;;6.75;5.50;;;11.00;77.80;;;;;;5114905;27;20076;-77
2022/03/02 05:29:17;;;;;;;8.15;5.78;;;11.00;77.80;;;;;;5132360;27;20019;-78
2022/03/02 05:31:43;;;;;;;8.70;5.97;;;11.00;77.90;;;;;;5131335;27;20077;-78
2022/03/02 05:34:09;;;;;;;11.60;6.05;;;11.00;77.80;;;;;;5131723;27;20031;-77
2022/03/02 05:36:34;;;;;;;7.97;5.63;;;11.00;77.70;;;;;;5131703;27;20038;-78
2022/03/02 05:39:00;;;;;;;10.63;6.57;;;11.00;77.70;;;;;;5132666;27;20023;-78
2022/03/02 05:41:25;;;;;;;8.25;6.03;;;11.00;77.70;;;;;;5130572;27;20063;-78
2022/03/02 05:43:53;;;;;;;8.85;5.80;;;11.00;77.50;;;;;;5131339;27;20046;-78
2022/03/02 05:46:19;;;;;;;9.50;6.25;;;11.00;77.60;;;;;;5130813;27;20056;-78
2022/03/02 05:48:44;;;;;;;8.27;6.25;;;11.00;77.30;;;;;;5131295;27;20055;-78
2022/03/02 05:51:10;;;;;;;7.50;5.55;;;11.00;77.50;;;;;;5112962;27;20023;-78
2022/03/02 05:53:36;;;;;;;8.40;5.88;;;11.00;77.30;;;;;;5133571;27;20023;-78
2022/03/02 05:56:02;;;;;;;8.10;5.60;;;10.90;77.20;;;;;;5129668;27;20481;-78
2022/03/02 05:58:28;;;;;;;9.20;6.05;;;11.00;77.40;;;;;;5112785;27;20031;-78
2022/03/02 06:00:53;;;;;;;9.45;6.07;;;11.00;77.20;;;;;;5130848;27;20045;-78
2022/03/02 06:03:20;;;;;;;8.65;6.35;;;11.00;76.90;;;;;;5131205;27;20022;-78
2022/03/02 06:05:48;;;;;;;7.50;5.70;;;10.90;76.60;;;;;;5132962;27;20521;-78
2022/03/02 06:08:13;;;;;;;10.18;6.45;;;10.90;76.90;;;;;;5131653;27;20023;-78
2022/03/02 06:10:39;;;;;;;9.05;6.57;;;10.90;76.80;;;;;;5131029;27;20079;-78
2022/03/02 06:13:05;;;;;;;9.77;6.20;;;10.90;76.80;;;;;;5130967;27;20388;-78
2022/03/02 06:15:31;;;;;;;10.32;6.50;;;10.90;76.40;;;;;;5130774;27;20058;-78
2022/03/02 06:18:01;;;;;;;8.50;6.28;;;10.90;76.70;;;;;;5131675;27;20039;-78
2022/03/02 06:20:29;;;;;;;10.52;6.70;;;10.90;76.90;;;;;;5112432;28;20023;-78
2022/03/02 06:22:55;;;;;;;9.73;6.57;;;10.90;76.90;;;;;;5130922;27;20034;-78
2022/03/02 06:25:21;;;;;;;8.00;6.13;;;10.90;76.80;;;;;;5112335;28;20043;-78
2022/03/02 06:27:46;;;;;;;11.85;6.97;;;10.90;76.80;;;;;;5130886;27;20081;-78
2022/03/02 06:30:13;;;;;;;8.82;6.30;;;10.90;76.70;;;;;;5112022;28;20019;-78
2022/03/02 06:32:38;;;;;;;11.00;6.50;;;10.90;76.50;;;;;;5133086;27;20407;-78
2022/03/02 06:35:05;;;;;;;13.75;6.75;;;10.90;76.70;;;;;;5110995;28;20019;-78
2022/03/02 06:37:33;;;;;;;9.55;6.45;;;10.90;76.50;;;;;;5130830;28;20027;-78
2022/03/02 06:40:00;;;;;;;8.15;5.90;;;11.00;76.90;;;;;;5130575;27;20108;-78
2022/03/02 06:42:59;;;;;;;10.48;6.47;;;10.90;76.70;;;;;;5112338;28;20023;-79
2022/03/02 06:45:33;;;;;;;9.98;6.40;;;10.90;76.70;;;;;;5117835;27;20042;-77
2022/03/02 06:48:09;;;;;;;12.30;7.07;;;10.90;76.60;;;;;;5128945;27;20026;-79
2022/03/02 06:50:37;;;;;;;11.40;6.55;;;10.90;76.40;;;;;;5131368;27;20479;-78
2022/03/02 06:53:05;;;;;;;9.20;6.53;;;10.90;76.70;;;;;;5134095;27;20030;-78
2022/03/02 06:55:30;;;;;;;10.43;6.90;;;10.90;76.60;;;;;;5134470;27;20015;-78
2022/03/02 06:57:59;;;;;;;11.20;7.32;;;10.80;76.30;;;;;;5134292;27;20521;-78
2022/03/02 07:00:25;;;;;;;10.55;7.00;;;10.80;76.30;;;;;;5134024;27;20023;-79
2022/03/02 07:03:04;;;;;;;10.43;7.28;;;10.90;76.10;;;;;;5135709;27;20023;-79
2022/03/02 07:05:31;;;;;;;10.07;7.05;;;10.80;77.00;;;;;;5135930;27;20098;-78
2022/03/02 07:08:00;;;;;;;9.75;6.82;;;10.80;76.10;;;;;;5134040;27;20102;-80
2022/03/02 07:10:27;;;;;;;11.73;6.78;;;10.80;76.40;;;;;;5133966;27;20019;-79
2022/03/02 07:12:53;;;;;;;10.13;6.90;;;10.80;76.10;;;;;;5136026;27;20034;-79
2022/03/02 07:15:19;;;;;;;10.48;7.00;;;10.80;76.30;;;;;;5134924;27;20483;-80
2022/03/02 07:17:45;;;;;;;9.05;6.10;;;10.80;76.20;;;;;;5135555;27;20130;-80
2022/03/02 07:20:12;;;;;;;10.02;6.30;;;10.80;76.10;;;;;;5136231;27;20019;-80
2022/03/02 07:22:50;;;;;;;8.50;6.57;;;10.70;76.00;;;;;;5115427;27;20076;-79
2022/03/02 07:25:18;;;;;;;9.65;6.40;;;10.80;76.20;;;;;;5133629;27;20072;-80
2022/03/02 07:27:45;;;;;;;11.65;7.18;;;10.80;76.20;;;;;;5133612;27;20019;-81
2022/03/02 07:30:11;;;;;;;11.38;7.30;;;10.80;75.50;;;;;;5115226;27;20030;-80
2022/03/02 07:32:42;;;;;;;9.93;6.82;;;10.80;75.90;;;;;;5136008;27;20106;-80
2022/03/02 07:35:09;;;;;;;10.30;6.82;;;10.80;75.90;;;;;;5132486;27;20027;-80
2022/03/02 07:37:35;;;;;;;12.13;7.35;;;10.90;75.90;;;;;;5132602;27;20027;-78
2022/03/02 07:40:01;;;;;;;9.80;6.95;;;10.80;75.50;;;;;;5115378;27;20026;-78
2022/03/02 07:42:27;;;;;;;11.50;7.15;;;10.90;75.50;;;;;;5133860;27;20019;-78
2022/03/02 07:44:54;;;;;;;9.80;6.82;;;10.90;75.80;;;;;;5133098;27;20524;-80
2022/03/02 07:47:20;;;;;;;9.75;6.68;;;10.90;75.40;;;;;;5141934;27;20022;-79
2022/03/02 07:49:46;;;;;;;11.80;7.20;;;10.90;75.50;;;;;;5132780;27;20057;-80
2022/03/02 07:52:14;;;;;;;11.25;6.63;;;11.00;75.30;;;;;;5118000;27;20019;-79
2022/03/02 07:54:41;;;;;;;8.95;6.50;;;10.90;75.20;;;;;;5131845;27;20027;-79
2022/03/02 07:57:09;;;;;;;9.63;6.57;;;11.00;75.40;;;;;;5136182;27;20047;-79
2022/03/02 07:59:40;;;;;;;10.95;6.88;;;11.00;74.90;;;;;;5132988;27;20034;-81
2022/03/02 08:02:09;;;;;;;13.52;7.25;;;11.00;75.10;;;;;;5130267;27;20034;-81
2022/03/02 08:04:38;;;;;;;10.95;6.72;;;11.00;74.90;;;;;;5129999;27;20041;-79
2022/03/02 08:07:05;;;;;;;8.57;6.47;;;11.10;74.90;;;;;;5132382;27;20023;-79
2022/03/02 08:09:31;;;;;;;8.80;5.82;;;11.10;75.00;;;;;;5131743;27;20055;-78
2022/03/02 08:12:03;;;;;;;10.25;6.38;;;11.10;74.90;;;;;;5132619;27;20518;-78
2022/03/02 08:14:29;;;;;;;10.65;6.93;;;11.20;75.00;;;;;;5114014;27;20514;-79
2022/03/02 08:16:55;;;;;;;9.63;6.55;;;11.20;74.70;;;;;;5135432;27;20054;-79
2022/03/02 08:19:22;;;;;;;9.77;6.55;;;11.30;74.50;;;;;;5120685;27;20019;-79
2022/03/02 08:22:03;;;;;;;11.20;7.03;;;11.40;74.50;;;;;;5136660;27;20027;-78
2022/03/02 08:24:30;;;;;;;9.50;6.60;;;11.40;74.60;;;;;;5145588;27;20110;-79
2022/03/02 08:27:02;;;;;;;11.25;7.30;;;11.50;74.10;;;;;;5134466;27;20491;-78
2022/03/02 08:29:32;;;;;;;10.20;7.28;;;11.50;74.10;;;;;;5132179;27;20023;-80
2022/03/02 08:32:01;;;;;;;10.85;6.90;;;11.60;73.90;;;;;;5131433;27;20047;-80
2022/03/02 08:34:28;;;;;;;10.93;6.68;;;11.60;73.70;;;;;;5133339;27;20023;-80
2022/03/02 08:36:54;;;;;;;10.57;6.90;;;11.70;73.60;;;;;;5132081;27;20031;-80
2022/03/02 08:39:20;;;;;;;10.27;7.07;;;11.70;73.30;;;;;;5132398;27;20027;-80
2022/03/02 08:41:46;;;;;;;9.85;6.60;;;11.70;73.10;;;;;;5135058;27;20023;-79
2022/03/02 08:44:12;;;;;;;10.40;6.90;;;11.70;72.90;;;;;;5132374;27;20061;-79
2022/03/02 08:46:39;;;;;;;9.80;6.88;;;11.80;73.30;;;;;;5134512;27;20023;-78
2022/03/02 08:49:05;;;;;;;10.07;6.97;;;11.90;73.20;;;;;;5131472;27;20039;-78
2022/03/02 08:51:33;;;;;;;10.10;6.97;;;11.90;73.30;;;;;;5131875;27;20039;-79
2022/03/02 08:54:02;;;;;;;11.27;7.63;;;12.00;72.90;;;;;;5143260;27;20023;-79
2022/03/02 08:56:28;;;;;;;10.63;7.10;;;12.00;72.90;;;;;;5136526;27;20083;-79
2022/03/02 08:58:54;;;;;;;11.70;7.18;;;12.10;72.70;;;;;;5133903;27;20027;-79
2022/03/02 09:01:21;;;;;;;9.27;6.57;;;12.20;72.50;;;;;;5111890;27;20054;-78
2022/03/02 09:03:51;;;;;;;9.73;6.35;;;12.20;72.90;;;;;;5129812;27;20027;-79
2022/03/02 09:06:20;;;;;;;11.95;6.97;;;12.20;72.10;;;;;;5129556;27;20025;-79
2022/03/02 09:08:47;;;;;;;11.40;6.88;;;12.10;70.80;;;;;;5130605;27;20015;-79
2022/03/02 09:11:13;;;;;;;11.50;6.70;;;12.10;71.70;;;;;;5131333;27;20042;-79
2022/03/02 09:13:39;;;;;;;10.07;6.82;;;12.10;72.00;;;;;;5111227;27;20022;-80
2022/03/02 09:16:07;;;;;;;9.55;6.82;;;12.20;72.10;;;;;;5131549;27;20038;-80
2022/03/02 09:18:34;;;;;;;9.25;6.70;;;12.20;71.90;;;;;;5129601;27;20537;-82
2022/03/02 09:21:02;;;;;;;10.82;6.47;;;12.20;71.90;;;;;;5112928;27;20023;-83
2022/03/02 09:23:31;;;;;;;12.90;6.90;;;12.20;71.30;;;;;;5131633;27;20122;-82
2022/03/02 09:26:04;;;;;;;8.75;6.38;;;12.30;71.60;;;;;;5112953;27;20134;-83
2022/03/02 09:28:34;;;;;;;12.15;7.05;;;12.30;71.60;;;;;;5130715;27;20033;-80
2022/03/02 09:31:03;;;;;;;10.18;6.85;;;12.30;71.80;;;;;;5131439;27;20022;-80
2022/03/02 09:33:31;;;;;;;10.40;6.38;;;12.40;71.90;;;;;;5111364;27;20031;-82
2022/03/02 09:36:00;;;;;;;10.20;6.88;;;12.40;71.60;;;;;;5113313;27;20425;-81
2022/03/02 09:38:27;;;;;;;8.55;6.03;;;12.40;71.20;;;;;;5132794;27;20042;-81
2022/03/02 09:40:55;;;;;;;9.13;6.57;;;12.50;71.00;;;;;;5131091;27;20023;-81
2022/03/02 09:43:25;;;;;;;9.70;6.18;;;12.50;71.30;;;;;;5130640;27;20039;-81
2022/03/02 09:45:56;;;;;;;10.55;7.32;;;12.50;71.50;;;;;;5130899;27;20026;-81
2022/03/02 09:48:34;;;;;;;10.02;6.50;;;12.60;71.40;;;;;;5111436;27;20032;-81
2022/03/02 09:51:06;;;;;;;8.70;6.28;;;12.80;71.80;;;;;;5117021;27;20015;-81
2022/03/02 09:53:33;;;;;;;10.13;6.50;;;12.90;72.10;;;;;;5131511;27;20070;-80
2022/03/02 09:56:06;;;;;;;8.95;5.85;;;13.00;71.50;;;;;;5130943;27;20011;-80
2022/03/02 09:58:38;;;;;;;9.15;6.45;;;13.10;71.40;;;;;;5130721;27;20035;-80
2022/03/02 10:01:08;;;;;;;8.68;5.88;;;13.10;70.70;;;;;;5130794;27;20055;-81
2022/03/02 10:03:36;;;;;;;11.23;7.00;;;13.20;70.60;;;;;;5131140;27;20097;-81
2022/03/02 10:06:05;;;;;;;11.13;6.95;;;13.20;70.60;;;;;;5130752;27;20026;-82
2022/03/02 10:08:35;;;;;;;8.85;6.75;;;13.30;70.60;;;;;;5114743;27;20055;-81
2022/03/02 10:11:06;;;;;;;8.93;6.28;;;13.30;70.00;;;;;;5115144;27;20019;-81
2022/03/02 10:13:33;;;;;;;10.35;6.95;;;13.40;70.90;;;;;;5130214;27;20062;-81
2022/03/02 10:16:02;;;;;;;7.97;6.13;;;13.40;69.80;;;;;;5112022;27;20042;-81
2022/03/02 10:18:32;;;;;;;8.65;6.43;;;13.50;69.80;;;;;;5130483;27;20035;-81
2022/03/02 10:21:01;;;;;;;9.10;6.68;;;13.60;69.80;;;;;;5131406;27;20031;-81
2022/03/02 10:23:42;;;;;;;9.95;7.13;;;13.60;69.70;;;;;;5112466;28;20165;-81
2022/03/02 10:26:18;;;;;;;8.98;6.38;;;13.70;69.60;;;;;;5131423;27;20034;-81
2022/03/02 10:29:12;;;;;;;8.63;6.38;;;13.80;69.80;;;;;;5133454;27;20039;-81
2022/03/02 10:32:01;;;;;;;8.93;6.32;;;13.80;69.90;;;;;;5135029;27;20019;-81
2022/03/02 10:34:29;;;;;;;8.18;5.88;;;13.90;69.30;;;;;;5116174;27;20035;-82
2022/03/02 10:37:13;;;;;;;9.00;6.38;;;13.90;69.20;;;;;;5134351;27;20027;-82
2022/03/02 10:39:55;;;;;;;8.57;6.60;;;14.00;70.70;;;;;;5134191;27;20019;-82
2022/03/02 10:42:28;;;;;;;11.43;6.18;;;14.10;69.90;;;;;;5100543;27;20038;-81
2022/03/02 10:45:01;;;;;;;9.23;5.70;;;14.20;69.60;;;;;;5135976;27;20043;-82
2022/03/02 10:47:28;;;;;;;7.57;5.85;;;14.20;69.00;;;;;;5118239;27;20027;-81
2022/03/02 10:49:56;;;;;;;8.23;6.00;;;14.30;68.50;;;;;;5115727;27;20019;-81
2022/03/02 10:52:24;;;;;;;11.20;5.93;;;14.30;69.30;;;;;;5137054;27;20064;-82
2022/03/02 10:54:52;;;;;;;9.73;6.35;;;14.40;68.40;;;;;;5115870;27;20383;-82
2022/03/02 10:57:20;;;;;;;9.73;5.95;;;14.40;69.10;;;;;;5134634;27;20067;-82
2022/03/02 10:59:47;;;;;;;9.38;6.43;;;14.60;69.10;;;;;;5136397;27;20023;-81
2022/03/02 11:02:13;;;;;;;9.68;5.50;;;14.70;69.20;;;;;;5134605;27;20099;-81
2022/03/02 11:04:43;;;;;;;6.35;5.38;;;14.80;68.80;;;;;;5115261;27;20475;-81
2022/03/02 11:07:10;;;;;;;9.65;5.60;;;14.90;68.30;;;;;;5133612;27;20114;-81
2022/03/02 11:09:37;;;;;;;9.18;6.00;;;15.00;69.10;;;;;;5134358;27;20106;-82
2022/03/02 11:12:05;;;;;;;7.22;5.72;;;15.10;68.70;;;;;;5115740;27;20299;-81
2022/03/02 11:14:31;;;;;;;9.52;5.72;;;15.20;67.60;;;;;;5136044;27;20027;-81
2022/03/02 11:17:16;;;;;;;10.25;6.22;;;15.30;67.90;;;;;;5115391;27;20031;-81
2022/03/02 11:19:46;;;;;;;10.35;6.40;;;15.20;67.50;;;;;;5114859;27;20065;-81
2022/03/02 11:22:13;;;;;;;6.72;5.15;;;15.30;67.30;;;;;;5134059;27;20035;-81
2022/03/02 11:24:39;;;;;;;8.48;5.60;;;15.50;68.10;;;;;;5134010;27;20065;-81
2022/03/02 11:27:06;;;;;;;7.07;5.13;;;15.60;67.80;;;;;;5133871;27;20027;-82
2022/03/02 11:29:32;;;;;;;9.55;5.75;;;15.70;67.60;;;;;;5135982;27;20471;-81
2022/03/02 11:32:09;;;;;;;8.82;5.80;;;15.80;67.20;;;;;;5132029;27;20533;-81
2022/03/02 11:34:42;;;;;;;7.88;5.80;;;15.80;66.30;;;;;;5132988;27;20019;-79
2022/03/02 11:37:08;;;;;;;9.32;6.35;;;15.80;66.70;;;;;;5133283;27;20088;-81
2022/03/02 11:39:42;;;;;;;7.68;5.90;;;15.80;66.70;;;;;;5133423;27;20027;-81
2022/03/02 11:42:09;;;;;;;8.48;5.80;;;15.80;66.60;;;;;;5115369;27;20020;-81
2022/03/02 11:44:41;;;;;;;7.90;5.45;;;15.80;66.80;;;;;;5099515;28;20044;-81
2022/03/02 11:47:15;;;;;;;10.55;6.10;;;15.90;66.70;;;;;;5096705;28;20115;-80
2022/03/02 11:49:46;;;;;;;10.25;5.95;;;15.90;67.20;;;;;;5087873;28;20024;-78
2022/03/02 11:52:24;;;;;;;10.73;5.55;;;15.90;67.20;;;;;;5098100;28;20119;-77
2022/03/02 11:55:00;;;;;;;8.48;5.47;;;15.90;67.20;;;;;;5089810;28;20016;-77
2022/03/02 11:57:28;;;;;;;6.82;4.85;;;15.90;67.10;;;;;;5088334;28;20036;-78
2022/03/02 12:00:07;;;;;;;10.32;5.68;;;15.80;67.20;;;;;;5092060;28;20012;-78
2022/03/02 12:02:41;;;;;;;7.65;5.60;;;15.70;67.60;;;;;;5088784;28;20032;-79
2022/03/02 12:05:06;;;;;;;;;;;15.70;67.10;;;;;;5088685;28;20039;-78
2022/03/02 12:07:41;;;;;;;6.45;4.90;;;15.70;68.20;;;;;;5090381;28;19912;-78
2022/03/02 12:10:51;;;;;;;10.68;6.35;;;15.70;68.00;;;;;;5091289;28;20020;-81
2022/03/02 12:13:18;;;;;;;8.43;5.82;;;15.80;68.30;;;;;;5027246;28;20029;-80
2022/03/02 12:15:47;;;;;;;7.00;5.32;;;15.80;67.70;;;;;;5031306;28;20045;-80
2022/03/02 12:18:15;;;;;;;7.18;5.60;;;15.80;67.40;;;;;;5049260;28;20115;-79
2022/03/02 12:20:48;;;;;;;10.43;5.80;;;15.80;67.50;;;;;;5048885;28;20075;-79
2022/03/02 12:23:23;;;;;;;7.50;5.22;;;15.80;67.90;;;;;;5046665;28;20029;-80
2022/03/02 12:25:49;;;;;;;11.70;6.45;;;15.80;67.70;;;;;;5028231;28;20021;-81
2022/03/02 12:28:17;;;;;;;9.20;6.22;;;15.70;67.50;;;;;;5048847;28;20063;-81
2022/03/02 12:30:43;;;;;;;8.32;6.38;;;15.70;67.50;;;;;;5056683;28;20053;-80
2022/03/02 12:33:09;;;;;;;11.50;5.93;;;15.70;67.80;;;;;;5060684;28;20068;-81
2022/03/02 12:35:35;;;;;;;8.10;5.43;;;15.80;68.00;;;;;;5045309;28;20083;-83
2022/03/02 12:38:07;;;;;;;8.93;5.68;;;15.80;67.80;;;;;;5054163;28;20048;-80
2022/03/02 12:40:39;;;;;;;9.95;5.57;;;15.80;67.80;;;;;;5050595;28;20037;-79
2022/03/02 12:43:08;;;;;;;9.55;6.30;;;15.90;68.20;;;;;;5044809;28;20026;-81
2022/03/02 12:45:42;;;;;;;7.63;5.82;;;15.90;67.60;;;;;;5049695;28;20123;-81
2022/03/02 12:48:09;;;;;;;7.70;5.75;;;16.00;68.30;;;;;;5077090;28;20074;-80
2022/03/02 12:50:36;;;;;;;6.75;5.25;;;16.00;67.50;;;;;;5093787;28;20073;-80